Boone, Nebraska
Current Conditions -  °F | °C
As of 6:15 PM on Monday 24 Nov 2014 (Local Time) from KBVN Reporting Station
Scattered Clouds Scattered Clouds  
Wind Chill: 20°   Ceiling: Unl
Heat Index: 29°   Visibility: 10mi
Dew Point:   Wind: 10mph
Humidity: 35%   Direction: 320°NW
Pressure: 29.99"   Gusts: NA
Location:  41.747°N, 98.0152°W
Report Text: KBVN 250015Z AUTO 32009KT 10SM SCT110 M02/M15 A2999 RMK AO2 T10161154
Loading
Personal Weather Stations






























Interactive Weather Map New forecast layout! Learn more

10-Day Weather Forecast

Advertisements
Track Severe Weather on mobile